Time;durP1;ratioP1;P1;durP2;ratioP2;P2;SDS_P1;SDS_P2;PMS_P1;PMS_P2;Temp;Humidity;BMP_temperature;BMP_pressure;BME280_temperature;BME280_humidity;BME280_pressure;Samples;Min_cycle;Max_cycle;Signal;HPM_P1;HPM_P2
2021/09/15 00:00:59;;;;;;;6.53;5.43;;;;;;;21.53;64.03;96521.19;4939069;29;20052;-79
2021/09/15 00:03:27;;;;;;;12.30;5.40;;;;;;;21.51;64.32;96510.03;4938939;29;20059;-78
2021/09/15 00:05:54;;;;;;;9.07;5.35;;;;;;;21.49;64.30;96511.34;4939147;29;20430;-79
2021/09/15 00:08:22;;;;;;;7.57;5.50;;;;;;;21.49;64.45;96519.28;4939169;29;20063;-79
2021/09/15 00:10:50;;;;;;;6.95;5.57;;;;;;;21.48;64.27;96513.19;4938937;29;20052;-78
2021/09/15 00:13:17;;;;;;;9.50;5.65;;;;;;;21.51;64.44;96522.50;4938895;29;20055;-78
2021/09/15 00:15:46;;;;;;;7.35;5.38;;;;;;;21.51;64.39;96527.81;4939330;29;20532;-79
2021/09/15 00:18:14;;;;;;;6.15;5.13;;;;;;;21.50;64.47;96521.72;4938678;29;20063;-78
2021/09/15 00:20:41;;;;;;;5.88;5.05;;;;;;;21.52;64.33;96521.47;4938556;29;20486;-78
2021/09/15 00:23:09;;;;;;;8.32;5.78;;;;;;;21.52;64.33;96521.47;4939031;29;20056;-78
2021/09/15 00:25:36;;;;;;;6.07;5.32;;;;;;;21.51;64.46;96511.88;4938356;29;20086;-78
2021/09/15 00:28:04;;;;;;;5.82;5.05;;;;;;;21.52;64.17;96519.59;4938352;29;20059;-78
2021/09/15 00:30:32;;;;;;;8.10;5.82;;;;;;;21.52;64.16;96521.47;4938058;29;20071;-79
2021/09/15 00:33:00;;;;;;;7.40;5.40;;;;;;;21.52;63.94;96518.81;4941713;29;20047;-78
2021/09/15 00:35:28;;;;;;;5.90;5.30;;;;;;;21.52;64.12;96516.16;4952481;29;20047;-78
2021/09/15 00:37:55;;;;;;;5.95;5.15;;;;;;;21.53;63.89;96515.88;4940532;29;20055;-78
2021/09/15 00:40:23;;;;;;;6.13;5.50;;;;;;;21.55;64.19;96519.09;4938897;29;20051;-78
2021/09/15 00:42:51;;;;;;;7.93;5.20;;;;;;;21.57;64.56;96511.66;4937814;29;20070;-78
2021/09/15 00:45:18;;;;;;;10.57;5.95;;;;;;;21.59;64.25;96519.38;4937999;29;20055;-79
2021/09/15 00:47:46;;;;;;;6.93;6.20;;;;;;;21.58;64.04;96513.28;4938157;29;20056;-78
2021/09/15 00:50:15;;;;;;;6.68;4.75;;;;;;;21.60;64.20;96515.66;4958038;29;20411;-78
2021/09/15 00:52:43;;;;;;;7.13;5.28;;;;;;;21.60;64.24;96516.50;4958753;29;20052;-78
2021/09/15 00:55:11;;;;;;;5.88;5.20;;;;;;;21.61;63.81;96506.66;4945077;29;20055;-78
2021/09/15 00:57:39;;;;;;;7.43;5.70;;;;;;;21.61;63.90;96506.66;4938257;29;20075;-78
2021/09/15 01:00:08;;;;;;;7.80;5.82;;;;;;;21.60;63.84;96505.88;4937868;29;20063;-78
2021/09/15 01:02:35;;;;;;;5.60;5.07;;;;;;;21.60;64.03;96507.69;4955725;29;20064;-78
2021/09/15 01:05:04;;;;;;;6.13;5.05;;;;;;;21.61;64.19;96506.66;4950641;29;20047;-78
2021/09/15 01:07:34;;;;;;;5.78;5.28;;;;;;;21.63;64.52;96501.91;4937742;29;20063;-78
2021/09/15 01:10:02;;;;;;;7.40;5.53;;;;;;;21.65;64.22;96499.78;4942196;29;20059;-79
2021/09/15 01:12:30;;;;;;;6.20;5.60;;;;;;;21.63;64.21;96501.91;4938498;29;20269;-79
2021/09/15 01:14:59;;;;;;;10.00;5.55;;;;;;;21.61;64.63;96496.03;4938577;29;20055;-79
2021/09/15 01:17:26;;;;;;;8.52;6.22;;;;;;;21.57;64.87;96498.41;4937872;29;20052;-78
2021/09/15 01:19:54;;;;;;;6.20;5.55;;;;;;;21.54;64.56;96495.47;4937057;29;20066;-78
2021/09/15 01:22:23;;;;;;;7.95;5.78;;;;;;;21.48;65.16;96497.28;4937381;29;20055;-78
2021/09/15 01:24:50;;;;;;;7.97;5.88;;;;;;;21.43;65.32;96493.75;4937305;29;20062;-78
2021/09/15 01:27:18;;;;;;;6.00;5.25;;;;;;;21.36;65.40;96491.28;4937114;29;20055;-78
2021/09/15 01:29:45;;;;;;;6.40;5.80;;;;;;;21.30;65.74;96495.78;4936810;29;20410;-78
2021/09/15 01:32:15;;;;;;;8.45;5.47;;;;;;;21.26;65.87;96496.53;4936978;29;20055;-78
2021/09/15 01:34:45;;;;;;;9.43;5.82;;;;;;;21.22;66.32;96496.22;4936838;29;20063;-78
2021/09/15 01:37:14;;;;;;;7.80;6.28;;;;;;;21.19;66.29;96499.41;4936925;29;20073;-78
2021/09/15 01:39:42;;;;;;;7.78;5.57;;;;;;;21.17;66.39;96488.25;4936829;29;20059;-78
2021/09/15 01:42:11;;;;;;;10.13;6.05;;;;;;;21.15;66.18;96485.03;4937109;29;20058;-78
2021/09/15 01:44:41;;;;;;;11.63;5.93;;;;;;;21.11;66.53;96483.94;4936957;29;20063;-78
2021/09/15 01:47:11;;;;;;;6.95;5.80;;;;;;;21.09;66.63;96486.81;4936973;29;20062;-78
2021/09/15 01:49:40;;;;;;;7.35;6.05;;;;;;;21.10;66.50;96484.97;4936405;29;20047;-78
2021/09/15 01:52:10;;;;;;;8.90;6.13;;;;;;;21.09;66.40;96478.88;4937038;29;20063;-78
2021/09/15 01:54:38;;;;;;;9.15;6.43;;;;;;;21.08;66.75;96482.59;4937087;29;20454;-78
2021/09/15 01:57:07;;;;;;;6.13;5.53;;;;;;;21.10;67.08;96482.31;4936884;29;20048;-79
2021/09/15 01:59:35;;;;;;;6.32;5.68;;;;;;;21.12;66.73;96472.25;4936230;29;20058;-78
2021/09/15 02:02:03;;;;;;;7.90;5.68;;;;;;;21.10;66.69;96466.41;4936329;29;20430;-78
2021/09/15 02:04:30;;;;;;;7.20;6.07;;;;;;;21.09;66.54;96470.91;4936600;29;20056;-78
2021/09/15 02:06:58;;;;;;;9.85;7.13;;;;;;;21.07;66.57;96464.28;4936375;29;20064;-78
2021/09/15 02:09:25;;;;;;;10.05;6.22;;;;;;;21.05;66.68;96476.97;4935847;29;20530;-79
2021/09/15 02:11:53;;;;;;;7.25;6.55;;;;;;;21.04;66.50;96464.78;4936470;29;20048;-78
2021/09/15 02:14:22;;;;;;;7.68;5.78;;;;;;;21.03;66.54;96468.47;4936345;29;20047;-78
2021/09/15 02:16:50;;;;;;;7.20;5.70;;;;;;;20.99;66.46;96468.97;4935611;29;20533;-78
2021/09/15 02:19:18;;;;;;;8.73;5.90;;;;;;;20.97;66.67;96465.78;4935885;29;20126;-78
2021/09/15 02:21:46;;;;;;;7.88;6.47;;;;;;;20.97;66.73;96457.81;4936051;29;20441;-78
2021/09/15 02:24:15;;;;;;;8.13;6.03;;;;;;;20.95;66.77;96456.47;4935952;29;20081;-78
2021/09/15 02:26:43;;;;;;;9.45;6.05;;;;;;;20.93;67.04;96459.38;4935825;29;20055;-78
2021/09/15 02:29:10;;;;;;;9.98;6.35;;;;;;;20.90;66.97;96459.88;4935510;29;20510;-78
2021/09/15 02:31:39;;;;;;;8.52;6.82;;;;;;;20.86;67.35;96460.63;4935790;29;20529;-78
2021/09/15 02:34:06;;;;;;;8.07;6.03;;;;;;;20.85;67.33;96461.69;4935715;29;20056;-78
2021/09/15 02:36:34;;;;;;;7.90;6.00;;;;;;;20.85;67.36;96467.78;4935710;29;20055;-78
2021/09/15 02:39:02;;;;;;;7.32;6.00;;;;;;;20.87;67.43;96470.97;4935300;29;20052;-78
2021/09/15 02:41:29;;;;;;;9.50;5.93;;;;;;;20.88;67.33;96466.47;4936031;29;20059;-78
2021/09/15 02:43:57;;;;;;;8.43;5.82;;;;;;;20.87;67.34;96454.28;4942585;29;20058;-79
2021/09/15 02:46:24;;;;;;;8.70;6.60;;;;;;;20.84;67.34;96455.59;4947759;29;20054;-79
2021/09/15 02:48:53;;;;;;;6.95;6.25;;;;;;;20.82;67.61;96462.97;4952167;29;20054;-78
2021/09/15 02:51:21;;;;;;;5.90;5.40;;;;;;;20.80;67.66;96454.47;4950322;29;20076;-78
2021/09/15 02:53:48;;;;;;;6.80;5.55;;;;;;;20.77;67.85;96455.78;4935579;29;20051;-78
2021/09/15 02:56:16;;;;;;;7.55;6.47;;;;;;;20.73;68.08;96453.88;4935158;29;20052;-78
2021/09/15 02:58:43;;;;;;;8.30;6.57;;;;;;;20.72;68.29;96454.91;4935351;29;20055;-78
2021/09/15 03:01:11;;;;;;;6.70;5.68;;;;;;;20.71;68.28;96450.69;4935396;29;20051;-78
2021/09/15 03:03:39;;;;;;;7.63;5.95;;;;;;;20.69;68.12;96455.44;4935540;29;20055;-78
2021/09/15 03:06:08;;;;;;;6.65;5.97;;;;;;;20.66;68.28;96453.25;4947623;23;20446;-80
2021/09/15 03:08:35;;;;;;;6.72;5.93;;;;;;;20.64;68.60;96450.06;4934770;29;20056;-77
2021/09/15 03:11:02;;;;;;;7.22;5.65;;;;;;;20.67;68.91;96445.06;4935531;29;20059;-79
2021/09/15 03:13:30;;;;;;;7.57;5.70;;;;;;;20.69;68.37;96442.19;4935132;29;20058;-78
2021/09/15 03:15:57;;;;;;;8.60;6.35;;;;;;;20.67;68.41;96438.97;4935187;29;20059;-78
2021/09/15 03:18:25;;;;;;;8.75;5.95;;;;;;;20.65;68.42;96441.88;4935168;29;20056;-78
2021/09/15 03:20:53;;;;;;;9.93;7.15;;;;;;;20.62;68.50;96428.31;4935110;29;20066;-79
2021/09/15 03:23:22;;;;;;;9.82;6.95;;;;;;;20.55;68.84;96429.31;4934864;29;20052;-78
2021/09/15 03:25:49;;;;;;;12.02;7.38;;;;;;;20.52;68.78;96428.97;4935073;29;20054;-78
2021/09/15 03:28:16;;;;;;;9.15;7.45;;;;;;;20.46;68.75;96428.13;4936754;29;20058;-78
2021/09/15 03:30:44;;;;;;;9.65;7.40;;;;;;;20.40;69.08;96428.31;4939341;29;20055;-79
2021/09/15 03:33:11;;;;;;;7.95;6.90;;;;;;;20.33;69.25;96428.50;4938865;29;20054;-76
2021/09/15 03:35:39;;;;;;;9.40;7.15;;;;;;;20.28;69.59;96425.81;4938767;29;20063;-79
2021/09/15 03:38:06;;;;;;;8.13;7.28;;;;;;;20.24;69.65;96424.69;4939195;29;20062;-77
2021/09/15 03:40:35;;;;;;;11.48;7.25;;;;;;;20.20;69.85;96426.22;4939105;29;20052;-78
2021/09/15 03:43:03;;;;;;;7.35;6.65;;;;;;;20.15;70.15;96427.78;4938710;29;20055;-77
2021/09/15 03:45:30;;;;;;;8.50;7.32;;;;;;;20.16;70.09;96429.38;4938479;29;20494;-77
2021/09/15 03:47:58;;;;;;;8.45;6.80;;;;;;;20.17;70.04;96423.03;4938642;29;20055;-76
2021/09/15 03:50:25;;;;;;;10.77;6.70;;;;;;;20.20;70.23;96424.38;4938526;29;20115;-77
2021/09/15 03:52:53;;;;;;;8.88;6.70;;;;;;;20.22;70.37;96419.63;4938679;29;20047;-78
2021/09/15 03:55:20;;;;;;;11.18;6.88;;;;;;;20.22;69.94;96418.84;4938761;29;20060;-77
2021/09/15 03:57:49;;;;;;;9.93;7.15;;;;;;;20.23;70.25;96417.81;4938549;29;20070;-78
2021/09/15 04:00:17;;;;;;;9.02;7.43;;;;;;;20.22;70.07;96416.19;4938436;29;20052;-77
2021/09/15 04:02:44;;;;;;;9.38;7.05;;;;;;;20.22;70.24;96416.19;4938625;29;20050;-80
2021/09/15 04:05:12;;;;;;;7.05;6.35;;;;;;;20.22;70.17;96424.94;4938526;29;20059;-79
2021/09/15 04:07:40;;;;;;;8.90;6.57;;;;;;;20.25;70.27;96421.81;4938554;29;20063;-77
2021/09/15 04:10:08;;;;;;;8.80;7.15;;;;;;;20.29;70.05;96427.41;4938193;29;20051;-77
2021/09/15 04:12:36;;;;;;;8.25;6.57;;;;;;;20.29;70.06;96424.75;4938192;29;20059;-76
2021/09/15 04:15:06;;;;;;;10.30;6.85;;;;;;;20.28;70.20;96423.16;4938052;29;20107;-79
2021/09/15 04:17:33;;;;;;;9.23;7.22;;;;;;;20.27;70.25;96414.41;4937945;29;20418;-78
2021/09/15 04:20:01;;;;;;;7.85;7.03;;;;;;;20.26;70.32;96419.97;4937895;29;20525;-79
2021/09/15 04:22:28;;;;;;;8.57;7.78;;;;;;;20.24;70.03;96420.19;4938022;29;20506;-78
2021/09/15 04:33:11;;;;;;;9.70;7.35;;;;;;;20.21;70.23;96430.50;4937977;29;20051;-78
2021/09/15 04:35:38;;;;;;;10.60;7.43;;;;;;;20.17;70.44;96424.88;4937725;29;20059;-78
2021/09/15 04:38:06;;;;;;;8.95;6.97;;;;;;;20.14;70.62;96425.41;4937725;29;20052;-78
2021/09/15 04:40:33;;;;;;;8.63;7.22;;;;;;;20.13;70.72;96435.16;4937529;29;20070;-78
2021/09/15 04:43:00;;;;;;;8.98;7.13;;;;;;;20.13;70.75;96437.81;4937793;29;20421;-78
2021/09/15 04:45:29;;;;;;;11.88;7.55;;;;;;;20.15;70.91;96448.16;4937718;29;20048;-76
2021/09/15 04:47:57;;;;;;;11.65;7.28;;;;;;;20.15;71.04;96454.25;4937694;29;20059;-76
2021/09/15 04:50:24;;;;;;;12.52;7.57;;;;;;;20.19;70.98;96459.88;4937175;29;20048;-75
2021/09/15 04:52:52;;;;;;;8.07;7.07;;;;;;;20.19;71.06;96469.66;4937238;29;20056;-76
2021/09/15 04:55:19;;;;;;;10.68;7.18;;;;;;;20.19;71.22;96469.66;4937567;29;20055;-76
2021/09/15 04:57:47;;;;;;;9.35;7.50;;;;;;;20.20;71.18;96472.06;4937747;29;20062;-77
2021/09/15 05:00:15;;;;;;;11.27;7.72;;;;;;;20.19;71.55;96475.75;4937746;29;20052;-78
2021/09/15 05:02:43;;;;;;;9.32;7.35;;;;;;;20.21;72.12;96478.19;4937389;29;20056;-76
2021/09/15 05:05:11;;;;;;;8.05;7.28;;;;;;;20.23;71.72;96470.78;4936818;29;20076;-78
2021/09/15 05:07:39;;;;;;;9.85;7.78;;;;;;;20.19;71.78;96459.88;4937438;29;20071;-78
2021/09/15 05:10:08;;;;;;;8.48;7.20;;;;;;;20.17;72.21;96452.16;4936915;29;20052;-78
2021/09/15 05:12:35;;;;;;;10.32;7.30;;;;;;;20.16;72.30;96444.50;4937371;29;20067;-78
2021/09/15 05:15:05;;;;;;;10.65;7.70;;;;;;;20.13;72.03;96445.75;4932534;29;20044;-74
2021/09/15 05:17:32;;;;;;;7.85;6.05;;;;;;;20.09;72.04;96444.63;4936487;29;20051;-76
2021/09/15 05:20:01;;;;;;;7.45;6.65;;;;;;;20.08;72.45;96443.06;4936180;29;20044;-75
2021/09/15 05:22:29;;;;;;;7.18;6.30;;;;;;;20.08;72.56;96436.97;4936908;29;20107;-75
2021/09/15 05:24:57;;;;;;;10.15;6.63;;;;;;;20.11;72.83;96439.09;4936407;29;20078;-75
2021/09/15 05:27:25;;;;;;;11.27;7.32;;;;;;;20.13;73.04;96444.97;4936668;29;20094;-75
2021/09/15 05:29:52;;;;;;;10.13;8.25;;;;;;;20.16;72.78;96450.56;4936414;29;20078;-75
2021/09/15 05:32:20;;;;;;;8.20;6.85;;;;;;;20.20;73.27;96456.16;4936194;29;20066;-77
2021/09/15 05:34:47;;;;;;;10.90;7.35;;;;;;;20.21;72.58;96451.69;4936346;29;20146;-77
2021/09/15 05:37:16;;;;;;;10.68;7.82;;;;;;;20.16;72.71;96447.94;4936947;29;20055;-76
2021/09/15 05:39:43;;;;;;;7.95;6.60;;;;;;;20.14;72.79;96446.56;4936380;29;20059;-75
2021/09/15 05:42:11;;;;;;;7.10;6.40;;;;;;;20.11;72.83;96447.84;4936544;29;20056;-76
2021/09/15 05:44:38;;;;;;;10.82;7.50;;;;;;;20.08;72.84;96443.06;4936544;29;20051;-76
2021/09/15 05:47:06;;;;;;;12.80;7.47;;;;;;;20.04;73.32;96452.53;4936685;29;20111;-75
2021/09/15 05:49:33;;;;;;;8.23;6.55;;;;;;;20.02;73.25;96454.63;4936357;29;20051;-75
2021/09/15 05:52:01;;;;;;;10.88;6.00;;;;;;;20.00;73.13;96464.66;4936068;29;20051;-76
2021/09/15 05:54:30;;;;;;;8.50;6.50;;;;;;;20.01;73.34;96479.50;4936454;29;20051;-75
2021/09/15 05:56:57;;;;;;;11.90;7.05;;;;;;;19.99;73.40;96486.09;4937258;29;20059;-76
2021/09/15 05:59:25;;;;;;;8.57;6.25;;;;;;;20.00;73.77;96488.47;4936259;29;20048;-77
2021/09/15 06:01:52;;;;;;;8.75;7.85;;;;;;;20.00;73.36;96493.78;4938008;29;20066;-79
2021/09/15 06:04:20;;;;;;;9.23;7.63;;;;;;;20.02;73.65;96499.63;4936629;29;20103;-78
2021/09/15 06:06:47;;;;;;;10.95;6.95;;;;;;;20.05;73.75;96488.56;4936391;29;20058;-75
2021/09/15 06:09:15;;;;;;;9.98;8.30;;;;;;;20.06;73.64;96479.56;4936318;29;20114;-77
2021/09/15 06:11:43;;;;;;;12.85;8.82;;;;;;;20.05;74.04;96477.97;4935913;29;20056;-77
2021/09/15 06:14:11;;;;;;;13.82;8.35;;;;;;;20.04;73.81;96494.09;4936540;29;20395;-77
2021/09/15 06:16:38;;;;;;;11.88;8.75;;;;;;;20.00;73.79;96483.19;4936302;29;20052;-76
2021/09/15 06:19:06;;;;;;;10.27;7.78;;;;;;;19.98;74.26;96485.28;4935989;29;20055;-77
2021/09/15 06:21:34;;;;;;;12.98;8.50;;;;;;;19.95;74.32;96480.47;4936962;29;20059;-78
2021/09/15 06:24:01;;;;;;;11.45;8.43;;;;;;;19.94;74.46;96478.84;4936664;29;20466;-77
2021/09/15 06:26:29;;;;;;;12.48;7.40;;;;;;;19.95;74.59;96477.84;4936889;29;20485;-77
2021/09/15 06:28:57;;;;;;;11.57;7.90;;;;;;;19.96;74.75;96480.25;4935279;29;20052;-74
2021/09/15 06:31:25;;;;;;;10.48;7.82;;;;;;;19.95;74.38;96477.84;4935661;29;20052;-75
2021/09/15 06:33:53;;;;;;;7.82;7.03;;;;;;;19.94;74.26;96482.34;4940923;29;20051;-76
2021/09/15 06:36:20;;;;;;;7.90;6.63;;;;;;;19.96;74.17;96471.47;4944188;29;20051;-75
2021/09/15 06:38:48;;;;;;;9.60;7.80;;;;;;;19.98;74.27;96474.69;4943450;29;20059;-76
2021/09/15 06:41:15;;;;;;;9.60;6.90;;;;;;;19.97;73.90;96475.75;4935835;29;20058;-75
2021/09/15 06:43:44;;;;;;;7.47;6.63;;;;;;;19.99;74.05;96481.59;4935177;29;20051;-76
2021/09/15 06:46:13;;;;;;;8.75;6.88;;;;;;;19.97;73.83;96483.69;4935998;29;20051;-78
2021/09/15 06:48:40;;;;;;;9.10;6.60;;;;;;;19.94;73.89;96476.22;4935461;29;20055;-75
2021/09/15 06:51:08;;;;;;;13.05;5.97;;;;;;;19.93;73.66;96479.91;4936430;29;20055;-77
2021/09/15 06:53:35;;;;;;;6.38;5.50;;;;;;;19.94;73.72;96484.97;4934976;29;20051;-75
2021/09/15 06:56:03;;;;;;;9.57;5.40;;;;;;;19.96;73.43;96482.06;4935580;29;20051;-74
2021/09/15 06:58:31;;;;;;;6.30;5.47;;;;;;;19.98;73.28;96484.47;4936225;29;20056;-76
2021/09/15 07:00:58;;;;;;;7.28;5.53;;;;;;;19.99;73.63;96491.41;4936379;29;20058;-77
2021/09/15 07:03:27;;;;;;;8.20;5.00;;;;;;;20.00;73.79;96488.47;4935188;29;20517;-76
2021/09/15 07:05:55;;;;;;;8.00;5.75;;;;;;;20.04;73.76;96494.09;4936079;29;20050;-78
2021/09/15 07:08:22;;;;;;;8.30;5.47;;;;;;;20.08;73.67;96496.00;4935396;29;20497;-75
2021/09/15 07:10:50;;;;;;;10.63;5.68;;;;;;;20.11;73.95;96500.00;4935406;29;20052;-77
2021/09/15 07:13:17;;;;;;;8.20;5.75;;;;;;;20.14;73.66;96500.34;4936820;29;20425;-77
2021/09/15 07:15:45;;;;;;;6.93;5.68;;;;;;;20.20;73.90;96500.38;4934936;29;20666;-75
2021/09/15 07:18:13;;;;;;;7.15;4.85;;;;;;;20.26;73.46;96505.50;4935258;29;20137;-76
2021/09/15 07:20:41;;;;;;;12.02;5.70;;;;;;;20.28;73.40;96506.06;4934939;29;20051;-75
2021/09/15 07:23:09;;;;;;;7.05;5.38;;;;;;;20.30;73.17;96503.97;4935295;29;20063;-76
2021/09/15 07:25:37;;;;;;;8.48;5.05;;;;;;;20.29;73.05;96506.84;4935239;29;20047;-77
2021/09/15 07:28:05;;;;;;;6.43;4.93;;;;;;;20.28;73.41;96495.47;4935329;29;20051;-77
2021/09/15 07:30:32;;;;;;;7.25;5.35;;;;;;;20.31;73.34;96489.69;4935420;29;20059;-77
2021/09/15 07:33:00;;;;;;;6.20;5.20;;;;;;;20.34;74.15;96488.41;4936196;29;20146;-77
2021/09/15 07:35:27;;;;;;;6.45;4.90;;;;;;;20.35;74.25;96490.00;4935127;29;20063;-78
2021/09/15 07:37:56;;;;;;;9.35;5.88;;;;;;;20.37;74.17;96488.69;4934839;29;20066;-76
2021/09/15 07:40:23;;;;;;;6.40;5.65;;;;;;;20.38;73.94;96489.50;4934817;29;20059;-76
2021/09/15 07:42:51;;;;;;;7.47;6.53;;;;;;;20.38;74.16;96497.47;4934554;29;20063;-76
2021/09/15 07:45:19;;;;;;;6.03;5.45;;;;;;;20.39;74.28;96517.59;4935989;29;20047;-75
2021/09/15 07:47:46;;;;;;;9.30;6.18;;;;;;;20.45;74.19;96518.47;4936337;29;20075;-77
2021/09/15 07:50:14;;;;;;;9.23;6.20;;;;;;;20.48;73.78;96516.09;4935759;29;20574;-76
2021/09/15 07:52:41;;;;;;;8.57;6.75;;;;;;;20.52;73.81;96516.44;4936345;29;20055;-77
2021/09/15 07:55:10;;;;;;;8.32;7.05;;;;;;;20.53;74.03;96512.72;4935447;29;20477;-75
2021/09/15 07:57:41;;;;;;;12.88;6.85;;;;;;;20.55;74.08;96495.53;4934665;29;20060;-75
2021/09/15 08:00:09;;;;;;;9.55;6.78;;;;;;;20.56;74.07;96491.84;4934502;29;20070;-75
2021/09/15 08:02:37;;;;;;;8.68;6.93;;;;;;;20.57;74.12;96503.25;4934789;29;20051;-76
2021/09/15 08:05:05;;;;;;;10.10;6.90;;;;;;;20.58;73.65;96510.97;4934470;29;20506;-76
2021/09/15 08:07:33;;;;;;;7.20;6.45;;;;;;;20.58;73.05;96513.63;4935023;29;20103;-76
2021/09/15 08:10:01;;;;;;;7.47;5.90;;;;;;;20.60;73.28;96516.03;4934585;29;20051;-75
2021/09/15 08:12:30;;;;;;;6.13;5.53;;;;;;;20.63;73.64;96512.06;4934720;29;20052;-76
2021/09/15 08:14:57;;;;;;;10.23;6.10;;;;;;;20.67;73.64;96507.88;4937609;29;20047;-75
2021/09/15 08:17:25;;;;;;;9.25;6.45;;;;;;;20.71;73.25;96519.59;4938437;29;20059;-76
2021/09/15 08:19:52;;;;;;;8.85;5.93;;;;;;;20.73;72.79;96536.06;4937888;29;20442;-76
2021/09/15 08:22:19;;;;;;;9.05;6.05;;;;;;;20.76;72.64;96533.69;4938487;29;20055;-75
2021/09/15 08:24:47;;;;;;;7.53;6.10;;;;;;;20.78;72.31;96528.16;4938152;29;20062;-76
2021/09/15 08:27:14;;;;;;;6.63;5.90;;;;;;;20.80;72.23;96526.06;4937982;29;20052;-74
2021/09/15 08:29:43;;;;;;;9.18;6.47;;;;;;;20.81;72.19;96517.03;4937706;29;20047;-76
2021/09/15 08:32:11;;;;;;;11.85;7.35;;;;;;;20.82;72.51;96509.91;4938035;29;20067;-75
2021/09/15 08:34:38;;;;;;;8.10;6.82;;;;;;;20.79;72.15;96516.47;4938027;29;20059;-77
2021/09/15 08:37:06;;;;;;;8.02;6.75;;;;;;;20.77;72.37;96518.59;4937975;29;20054;-75
2021/09/15 08:39:33;;;;;;;9.38;7.13;;;;;;;20.72;72.41;96526.50;4937608;29;20059;-75
2021/09/15 08:42:01;;;;;;;7.00;6.32;;;;;;;20.68;72.51;96535.97;4937587;29;20056;-75
2021/09/15 08:44:28;;;;;;;6.57;5.70;;;;;;;20.67;72.69;96555.59;4937704;29;20063;-75
2021/09/15 08:46:59;;;;;;;9.75;7.30;;;;;;;20.68;72.45;96578.38;4937773;29;20054;-76
2021/09/15 08:49:29;;;;;;;7.75;6.18;;;;;;;20.68;72.45;96573.88;4938284;29;20055;-78
2021/09/15 08:51:57;;;;;;;10.10;6.72;;;;;;;20.70;72.46;96573.63;4938253;29;20054;-74
2021/09/15 08:54:25;;;;;;;7.32;6.50;;;;;;;20.74;72.68;96572.09;4937865;29;20055;-77
2021/09/15 08:56:52;;;;;;;10.07;6.63;;;;;;;20.78;72.73;96574.00;4938681;29;20074;-77
2021/09/15 08:59:20;;;;;;;6.70;6.10;;;;;;;20.83;72.35;96560.00;4937712;29;20051;-76
2021/09/15 09:01:47;;;;;;;8.90;7.97;;;;;;;20.85;72.54;96547.31;4937852;29;20055;-77
2021/09/15 09:04:17;;;;;;;10.38;7.32;;;;;;;20.83;72.72;96544.09;4937052;29;20114;-78
2021/09/15 09:17:29;;;;;;;9.13;6.45;;;;;;;20.78;72.48;96509.59;3166629;27;20052;-79
2021/09/15 09:20:18;;;;;;;9.38;7.07;;;;;;;20.80;72.35;96512.81;4941696;29;20036;-79
2021/09/15 09:23:07;;;;;;;10.70;7.75;;;;;;;20.80;72.90;96509.34;4941488;29;20049;-78
2021/09/15 09:25:47;;;;;;;10.05;6.22;;;;;;;20.82;72.62;96518.66;4940922;29;20084;-78
2021/09/15 09:28:30;;;;;;;7.05;6.35;;;;;;;20.85;72.07;96531.41;4941970;29;20040;-78
2021/09/15 09:31:03;;;;;;;7.90;5.65;;;;;;;20.87;72.04;96541.75;4942158;29;20071;-79
2021/09/15 09:33:34;;;;;;;7.25;6.05;;;;;;;20.89;71.69;96566.97;4941817;29;20052;-79
2021/09/15 09:36:07;;;;;;;10.52;7.60;;;;;;;20.93;71.69;96564.63;4941451;29;20044;-78
2021/09/15 09:38:36;;;;;;;;;;;;;;;20.94;71.63;96579.50;4941545;29;20051;-78
2021/09/15 09:41:08;;;;;;;14.18;7.70;;;;;;;20.94;72.09;96582.13;4941537;29;19927;-79
2021/09/15 09:43:39;;;;;;;10.45;6.90;;;;;;;20.96;71.83;96574.75;4942357;29;20049;-78
2021/09/15 09:46:11;;;;;;;7.72;6.53;;;;;;;20.97;71.97;96576.34;4941990;29;20100;-78
2021/09/15 09:48:44;;;;;;;6.78;6.00;;;;;;;20.99;72.03;96579.56;4941066;29;20055;-78
2021/09/15 09:51:32;;;;;;;8.68;5.95;;;;;;;21.02;72.24;96578.25;4941237;29;20052;-79
2021/09/15 09:54:20;;;;;;;5.78;5.18;;;;;;;21.04;72.18;96584.13;4940967;29;20040;-78
2021/09/15 09:56:50;;;;;;;10.98;6.72;;;;;;;21.03;72.01;96579.84;4940975;29;20060;-78
2021/09/15 09:59:21;;;;;;;6.82;6.13;;;;;;;21.03;71.78;96587.81;4941171;29;20067;-79
2021/09/15 10:01:57;;;;;;;8.57;5.57;;;;;;;21.04;72.16;96586.78;4940844;29;20039;-78
2021/09/15 10:04:28;;;;;;;7.35;5.22;;;;;;;21.06;71.70;96597.94;4940853;29;20080;-79
2021/09/15 10:09:44;;;;;;;7.03;4.68;;;;;;;21.13;71.61;96603.84;4996644;23;20035;-80
2021/09/15 10:12:15;;;;;;;6.57;4.82;;;;;;;21.13;71.10;96598.53;4980836;28;20047;-81
2021/09/15 10:14:46;;;;;;;7.25;4.57;;;;;;;21.15;71.22;96588.47;4979948;28;20043;-80
2021/09/15 10:17:31;;;;;;;10.27;6.03;;;;;;;21.16;70.91;96590.06;4961474;29;20051;-79
2021/09/15 10:20:01;;;;;;;7.00;4.45;;;;;;;21.15;70.51;96593.78;4961033;29;20068;-80
2021/09/15 10:22:32;;;;;;;6.32;4.78;;;;;;;21.14;70.51;96592.16;4963163;23;20058;-76
2021/09/15 10:25:03;;;;;;;7.53;4.40;;;;;;;21.14;70.49;96587.69;4956344;29;20055;-77
2021/09/15 10:27:51;;;;;;;5.88;4.60;;;;;;;21.14;69.81;96594.81;4955090;29;20066;-74
2021/09/15 10:30:19;;;;;;;8.52;4.43;;;;;;;21.13;69.37;96599.31;4954185;28;20559;-75
2021/09/15 10:32:49;;;;;;;5.07;4.13;;;;;;;21.13;69.62;96598.53;4954466;29;20054;-75
2021/09/15 10:35:46;;;;;;;4.82;4.28;;;;;;;21.14;69.06;96592.16;4955180;28;20520;-76
2021/09/15 10:38:14;;;;;;;6.00;4.22;;;;;;;21.13;68.92;96601.19;4956148;28;20048;-77
2021/09/15 10:40:45;;;;;;;5.05;3.63;;;;;;;21.14;68.94;96600.94;4956012;28;20062;-77
2021/09/15 10:43:42;;;;;;;6.50;3.55;;;;;;;21.16;68.96;96611.28;4957271;29;20428;-77
2021/09/15 10:46:20;;;;;;;5.38;4.40;;;;;;;21.17;69.27;96616.34;4968166;28;20083;-77
2021/09/15 10:49:19;;;;;;;5.85;3.92;;;;;;;21.18;68.94;96598.56;4966492;28;20051;-78
2021/09/15 10:51:48;;;;;;;7.43;3.55;;;;;;;21.19;69.14;96606.28;4956285;28;20110;-78
2021/09/15 10:54:41;;;;;;;6.43;3.85;;;;;;;21.21;69.38;96592.78;4954525;28;20474;-78
2021/09/15 10:57:14;;;;;;;4.03;3.60;;;;;;;21.20;69.46;96591.97;4954128;28;20055;-78
2021/09/15 10:59:53;;;;;;;4.30;3.78;;;;;;;21.22;69.12;96593.59;4954153;28;20058;-74
2021/09/15 11:02:25;;;;;;;6.05;4.40;;;;;;;21.19;69.75;96586.94;4954196;28;20062;-75
2021/09/15 11:04:53;;;;;;;6.13;3.30;;;;;;;21.19;69.65;96584.28;4954034;28;20050;-77
2021/09/15 11:07:58;;;;;;;5.00;3.45;;;;;;;21.21;69.79;96582.19;4954787;28;20055;-77
2021/09/15 11:10:42;;;;;;;5.32;3.65;;;;;;;21.22;69.50;96589.06;4955872;28;20055;-77
2021/09/15 11:13:13;;;;;;;6.40;3.38;;;;;;;21.22;69.11;96588.28;4954043;28;20066;-75
2021/09/15 11:15:42;;;;;;;6.55;3.70;;;;;;;21.21;69.42;96582.19;4954202;28;20043;-76
2021/09/15 11:18:20;;;;;;;3.90;3.20;;;;;;;21.23;69.18;96580.09;4954407;29;20059;-75
2021/09/15 11:20:54;;;;;;;4.20;3.28;;;;;;;21.25;69.17;96577.94;4954125;28;20051;-76
2021/09/15 11:23:24;;;;;;;3.92;3.10;;;;;;;21.27;68.78;96585.66;4954280;29;20059;-75
2021/09/15 11:25:52;;;;;;;4.50;3.20;;;;;;;21.28;68.47;96588.09;4954557;29;20058;-77
2021/09/15 11:28:23;;;;;;;5.45;3.25;;;;;;;21.29;68.40;96584.38;4954671;29;20047;-77
2021/09/15 11:31:02;;;;;;;5.32;3.08;;;;;;;21.34;68.40;96581.78;4955918;28;20047;-76
2021/09/15 11:33:31;;;;;;;3.63;3.10;;;;;;;21.36;67.70;96584.16;4956069;28;20055;-76
2021/09/15 11:36:02;;;;;;;6.30;3.45;;;;;;;21.36;67.79;96589.47;4955780;29;20126;-77
2021/09/15 11:38:31;;;;;;;4.32;3.17;;;;;;;21.39;68.13;96584.47;4955970;29;20051;-76
2021/09/15 11:41:06;;;;;;;4.95;3.13;;;;;;;21.44;67.87;96573.13;4956318;28;20062;-77
2021/09/15 11:43:35;;;;;;;6.70;3.08;;;;;;;21.46;67.59;96573.69;4956012;29;20057;-77
2021/09/15 11:46:03;;;;;;;6.03;3.20;;;;;;;21.48;68.01;96565.47;4955988;28;20532;-76
2021/09/15 11:48:34;;;;;;;7.38;3.53;;;;;;;21.50;67.51;96553.56;4956085;28;20054;-76
2021/09/15 11:51:14;;;;;;;5.22;3.03;;;;;;;21.50;66.99;96547.44;4959662;28;20062;-76
2021/09/15 11:53:47;;;;;;;4.63;3.47;;;;;;;21.48;66.26;96545.03;4959648;29;20505;-77
2021/09/15 11:56:18;;;;;;;3.88;3.05;;;;;;;21.54;67.03;96543.25;4959565;29;20622;-76
2021/09/15 11:58:47;;;;;;;3.85;2.45;;;;;;;21.60;66.21;96537.72;4959207;29;20063;-77
2021/09/15 12:01:15;;;;;;;7.00;3.38;;;;;;;21.67;66.29;96537.50;4959226;28;20074;-76
2021/09/15 12:03:44;;;;;;;4.30;3.13;;;;;;;21.74;66.06;96532.78;4959466;28;20533;-77